KOWB/OWB METAR and TAF weather

Enter ICAO airport designator
Station Type Date Time Source
KOWB METAR 2019/12/14 17:14 UTC NOAA

KOWB 141714Z 25008KT 7SM BKN016 OVC022 08/05 A2977 RMK AO2


Station Type Date Time Source
KOWB Decoded METAR 2019/12/14 17:14 UTC NOAA

Owensboro, Owensboro-Daviess County Airport, KY, United States (KOWB) 37-44-24N 087-10-00W
Dec 14, 2019 - 12:14 PM EST / 2019.12.14 1714 UTC
Wind: from the WSW (250 degrees) at 9 MPH (8 KT):0
Visibility: 7 mile(s):0
Sky conditions: overcast
Temperature: 46 F (8 C)
Dew Point: 41 F (5 C)
Relative Humidity: 81%
Pressure (altimeter): 29.77 in. Hg (1008 hPa)
ob: KOWB 141714Z 25008KT 7SM BKN016 OVC022 08/05 A2977 RMK AO2
cycle: 17

Station Type Date Time Source
KOWB TAF 2019/12/14 15:24 UTC NOAA

TAF
AMD KOWB 141522Z 1415/1512 VRB04KT 5SM BR VCSH SCT004 OVC007
FM142100 29008KT P6SM VCSH SCT010 OVC050
FM150100 31007KT 6SM BR VCSH OVC015
FM150600 32004KT P6SM SCT025 BKN120

Example: see airport list